createdAt,value
2018-12-01T00:02:29.011Z,10.08
2018-12-01T00:07:32.165Z,9.45
2018-12-01T00:12:35.333Z,10.40
2018-12-01T00:17:38.501Z,9.35
2018-12-01T00:22:41.676Z,9.05
2018-12-01T00:27:44.849Z,9.43
2018-12-01T00:32:49.585Z,9.30
2018-12-01T00:37:52.765Z,9.15
2018-12-01T00:42:56.062Z,9.73
2018-12-01T00:47:59.251Z,10.75
2018-12-01T00:53:02.440Z,9.88
2018-12-01T00:58:05.669Z,9.05
2018-12-01T01:03:08.833Z,9.83
2018-12-01T01:08:12.004Z,10.10
2018-12-01T01:13:15.208Z,10.78
2018-12-01T01:18:18.367Z,11.10
2018-12-01T01:23:21.541Z,11.12
2018-12-01T01:28:24.714Z,12.43
2018-12-01T01:33:29.858Z,11.53
2018-12-01T01:38:33.026Z,11.68
2018-12-01T01:43:37.024Z,12.30
2018-12-01T01:48:40.196Z,11.87
2018-12-01T01:53:43.372Z,12.13
2018-12-01T01:58:46.538Z,12.07
2018-12-01T02:03:49.706Z,10.97
2018-12-01T02:08:52.891Z,12.33
2018-12-01T02:13:56.045Z,11.50
2018-12-01T02:18:59.201Z,11.93
2018-12-01T02:24:02.453Z,12.40
2018-12-01T02:29:05.645Z,11.87
2018-12-01T02:34:08.812Z,11.70
2018-12-01T02:39:12.036Z,12.30
2018-12-01T02:44:26.690Z,11.70
2018-12-01T02:49:29.877Z,11.95
2018-12-01T02:54:33.056Z,12.05
2018-12-01T02:59:36.244Z,11.80
2018-12-01T03:04:39.422Z,12.37
2018-12-01T03:09:42.941Z,11.88
2018-12-01T03:14:46.149Z,12.33
2018-12-01T03:19:49.330Z,12.23
2018-12-01T03:24:52.502Z,12.47
2018-12-01T03:29:55.668Z,12.25
2018-12-01T03:34:58.845Z,11.18
2018-12-01T03:40:02.029Z,10.75
2018-12-01T03:45:06.201Z,10.45
2018-12-01T03:50:10.745Z,10.90
2018-12-01T03:55:23.372Z,10.45
2018-12-01T04:00:30.297Z,9.63
2018-12-01T04:05:33.470Z,10.57
2018-12-01T04:10:36.636Z,9.77
2018-12-01T04:15:39.809Z,10.90
2018-12-01T04:20:42.994Z,9.67
2018-12-01T04:25:46.177Z,10.23
2018-12-01T04:30:49.332Z,9.13
2018-12-01T04:35:52.492Z,8.97
2018-12-01T04:40:55.676Z,8.75
2018-12-01T04:45:58.858Z,9.08
2018-12-01T04:51:02.046Z,10.20
2018-12-01T04:56:05.385Z,9.50
2018-12-01T05:01:08.560Z,9.40
2018-12-01T05:06:11.726Z,9.97
2018-12-01T05:11:14.946Z,9.07
2018-12-01T05:16:18.105Z,9.03
2018-12-01T05:21:21.296Z,9.20
2018-12-01T05:26:24.464Z,8.73
2018-12-01T05:31:27.634Z,8.80
2018-12-01T05:36:30.813Z,8.73
2018-12-01T05:41:34.109Z,7.75
2018-12-01T05:46:37.177Z,7.78
2018-12-01T05:51:40.412Z,7.70
2018-12-01T05:56:43.573Z,7.47
2018-12-01T06:01:46.749Z,7.55
2018-12-01T06:06:49.962Z,7.60
2018-12-01T06:11:53.182Z,6.97
2018-12-01T06:16:56.386Z,6.93
2018-12-01T06:21:59.572Z,7.13
2018-12-01T06:27:02.762Z,6.87
2018-12-01T06:32:06.525Z,6.37
2018-12-01T06:37:09.726Z,7.08
2018-12-01T06:42:12.916Z,7.00
2018-12-01T06:47:16.112Z,7.08
2018-12-01T06:52:19.379Z,7.08
2018-12-01T06:57:22.774Z,7.00
2018-12-01T07:02:25.944Z,8.00
2018-12-01T07:07:29.124Z,7.78
2018-12-01T07:12:32.288Z,6.90
2018-12-01T07:17:35.478Z,7.15
2018-12-01T07:22:38.697Z,6.90
2018-12-01T07:27:41.929Z,10.18
2018-12-01T07:32:45.654Z,12.30
2018-12-01T07:37:48.853Z,7.53
2018-12-01T07:42:52.021Z,7.53
2018-12-01T07:47:55.279Z,7.37
2018-12-01T07:52:58.469Z,6.60
2018-12-01T07:58:01.652Z,6.58
2018-12-01T08:03:04.978Z,6.50
2018-12-01T08:08:08.156Z,6.90
2018-12-01T08:13:11.352Z,6.62
2018-12-01T08:18:14.666Z,6.47
2018-12-01T08:23:17.869Z,5.80
2018-12-01T08:28:22.837Z,5.72
2018-12-01T08:33:26.008Z,5.60
2018-12-01T08:38:29.168Z,5.30
2018-12-01T08:43:32.348Z,5.60
2018-12-01T08:48:35.750Z,5.40
2018-12-01T08:53:38.927Z,6.00
2018-12-01T08:58:42.174Z,5.37
2018-12-01T09:03:45.378Z,4.60
2018-12-01T09:08:48.560Z,4.50
2018-12-01T09:13:51.744Z,4.67
2018-12-01T09:18:55.079Z,5.17
2018-12-01T09:23:58.321Z,5.17
2018-12-01T09:29:01.558Z,4.57
2018-12-01T09:34:04.950Z,4.57
2018-12-01T09:39:08.565Z,4.60
2018-12-01T09:44:11.738Z,4.40
2018-12-01T09:49:15.008Z,4.57
2018-12-01T09:54:18.182Z,4.65
2018-12-01T09:59:21.381Z,4.08
2018-12-01T10:04:24.561Z,3.85
2018-12-01T10:09:27.742Z,3.87
2018-12-01T10:14:30.909Z,4.37
2018-12-01T10:19:34.077Z,4.80
2018-12-01T10:24:37.265Z,4.37
2018-12-01T10:29:40.434Z,4.35
2018-12-01T10:34:43.619Z,3.60
2018-12-01T10:39:46.760Z,4.17
2018-12-01T10:44:49.964Z,3.67
2018-12-01T10:49:53.133Z,4.22
2018-12-01T10:54:56.308Z,4.90
2018-12-01T10:59:59.477Z,4.65
2018-12-01T11:05:02.666Z,4.75
2018-12-01T11:10:07.707Z,4.15
2018-12-01T11:15:10.883Z,4.43
2018-12-01T11:20:14.028Z,4.03
2018-12-01T11:25:17.206Z,3.98
2018-12-01T11:30:20.428Z,4.90
2018-12-01T11:35:23.719Z,4.92
2018-12-01T11:40:26.884Z,5.22
2018-12-01T11:45:30.041Z,4.72
2018-12-01T11:50:33.209Z,5.10
2018-12-01T11:55:36.373Z,4.63
2018-12-01T12:00:39.537Z,4.97
2018-12-01T12:05:42.713Z,4.80
2018-12-01T12:10:45.977Z,4.53
2018-12-01T12:15:49.317Z,4.85
2018-12-01T12:20:52.507Z,4.92
2018-12-01T12:25:55.670Z,4.73
2018-12-01T12:30:58.843Z,4.20
2018-12-01T12:36:02.014Z,4.20
2018-12-01T12:41:05.781Z,3.67
2018-12-01T12:46:09.049Z,3.60
2018-12-01T12:51:12.219Z,3.72
2018-12-01T12:56:15.413Z,4.08
2018-12-01T13:01:18.577Z,3.75
2018-12-01T13:06:21.745Z,4.00
2018-12-01T13:11:24.901Z,3.50
2018-12-01T13:16:28.121Z,3.70
2018-12-01T13:21:31.349Z,3.50
2018-12-01T13:26:34.501Z,3.83
2018-12-01T13:31:37.680Z,3.07
2018-12-01T13:36:40.912Z,2.93
2018-12-01T13:41:44.273Z,2.92
2018-12-01T13:46:47.448Z,3.98
2018-12-01T13:51:50.652Z,3.70
2018-12-01T13:56:53.906Z,3.70
2018-12-01T14:01:57.065Z,3.10
2018-12-01T14:07:00.245Z,3.37
2018-12-01T14:12:03.454Z,3.40
2018-12-01T14:17:06.769Z,3.67
2018-12-01T14:22:09.936Z,3.33
2018-12-01T14:27:13.104Z,3.75
2018-12-01T14:32:16.276Z,3.42
2018-12-01T14:37:19.436Z,3.00
2018-12-01T14:42:23.018Z,3.17
2018-12-01T14:47:26.311Z,3.17
2018-12-01T14:52:29.810Z,3.73
2018-12-01T14:57:33.423Z,3.15
2018-12-01T15:02:36.789Z,3.70
2018-12-01T15:07:39.990Z,3.42
2018-12-01T15:12:43.621Z,2.90
2018-12-01T15:17:47.088Z,2.72
2018-12-01T15:22:52.303Z,2.60
2018-12-01T15:27:55.890Z,2.42
2018-12-01T15:33:08.410Z,2.37
2018-12-01T15:38:11.592Z,2.47
2018-12-01T15:43:14.829Z,2.37
2018-12-01T15:48:18.068Z,2.90
2018-12-01T15:53:21.549Z,2.55
2018-12-01T15:58:24.871Z,2.50
2018-12-01T16:03:28.182Z,2.50
2018-12-01T16:08:31.493Z,2.50
2018-12-01T16:13:35.624Z,2.08
2018-12-01T16:18:38.802Z,3.87
2018-12-01T16:23:42.051Z,2.80
2018-12-01T16:28:45.211Z,2.83
2018-12-01T16:33:48.465Z,2.25
2018-12-01T16:38:51.919Z,2.62
2018-12-01T16:43:55.397Z,2.58
2018-12-01T16:48:58.609Z,2.80
2018-12-01T16:54:01.872Z,2.70
2018-12-01T16:59:05.845Z,2.33
2018-12-01T17:04:09.221Z,2.60
2018-12-01T17:09:12.578Z,2.65
2018-12-01T17:14:15.787Z,2.12
2018-12-01T17:19:18.938Z,2.50
2018-12-01T17:24:22.353Z,2.85
2018-12-01T17:29:25.754Z,2.95
2018-12-01T17:34:29.053Z,2.98
2018-12-01T17:39:32.290Z,4.35
2018-12-01T17:44:35.479Z,3.08
2018-12-01T17:49:38.673Z,3.30
2018-12-01T17:54:41.838Z,3.30
2018-12-01T17:59:45.012Z,4.30
2018-12-01T18:04:48.293Z,3.50
2018-12-01T18:09:51.487Z,3.50
2018-12-01T18:14:54.706Z,4.40
2018-12-01T18:19:57.868Z,4.60
2018-12-01T18:25:01.052Z,5.10
2018-12-01T18:30:06.750Z,5.17
2018-12-01T18:35:10.165Z,3.72
2018-12-01T18:40:15.237Z,6.30
2018-12-01T18:45:19.550Z,4.12
2018-12-01T18:50:22.730Z,6.00
2018-12-01T18:55:27.252Z,4.25
2018-12-01T19:00:42.444Z,6.03
2018-12-01T19:05:46.476Z,4.40
2018-12-01T19:10:49.766Z,5.53
2018-12-01T19:15:52.925Z,4.83
2018-12-01T19:20:56.185Z,5.10
2018-12-01T19:25:59.336Z,6.55
2018-12-01T19:31:02.524Z,7.10
2018-12-01T19:36:06.068Z,13.38
2018-12-01T19:41:09.236Z,6.10
2018-12-01T19:46:12.415Z,6.77
2018-12-01T19:51:15.594Z,7.60
2018-12-01T19:56:18.779Z,7.15
2018-12-01T20:01:22.090Z,8.20
2018-12-01T20:06:25.404Z,7.40
2018-12-01T20:11:28.568Z,8.20
2018-12-01T20:16:36.936Z,8.00
2018-12-01T20:21:40.184Z,9.67
2018-12-01T20:26:43.447Z,8.75
2018-12-01T20:31:46.667Z,8.53
2018-12-01T20:36:53.548Z,8.10
2018-12-01T20:41:56.804Z,9.10
2018-12-01T20:46:59.977Z,7.77
2018-12-01T20:52:03.206Z,10.33
2018-12-01T20:57:09.853Z,10.40
2018-12-01T21:02:13.082Z,9.75
2018-12-01T21:07:16.273Z,11.05
2018-12-01T21:12:19.523Z,11.00
2018-12-01T21:17:22.701Z,9.20
2018-12-01T21:22:26.165Z,8.45
2018-12-01T21:27:29.373Z,8.85
2018-12-01T21:32:32.585Z,8.95
2018-12-01T21:37:35.915Z,9.78
2018-12-01T21:42:39.165Z,9.80
2018-12-01T21:47:42.413Z,10.40
2018-12-01T21:52:48.126Z,10.00
2018-12-01T21:57:52.055Z,10.60
2018-12-01T22:02:57.621Z,10.07
2018-12-01T22:08:00.796Z,11.85
2018-12-01T22:13:04.008Z,12.33
2018-12-01T22:18:07.210Z,11.33
2018-12-01T22:23:10.413Z,12.13
2018-12-01T22:28:14.377Z,12.33
2018-12-01T22:33:20.161Z,11.43
2018-12-01T22:38:24.584Z,10.88
2018-12-01T22:43:27.773Z,12.98
2018-12-01T22:48:31.102Z,10.45
2018-12-01T22:53:34.317Z,12.47
2018-12-01T22:58:37.493Z,11.83
2018-12-01T23:03:41.548Z,12.28
2018-12-01T23:08:44.823Z,11.50
2018-12-01T23:13:48.574Z,11.20
2018-12-01T23:18:52.028Z,8.88
2018-12-01T23:23:55.224Z,9.00
2018-12-01T23:28:58.399Z,7.17
2018-12-01T23:34:01.652Z,7.10
2018-12-01T23:39:05.763Z,6.20
2018-12-01T23:44:10.106Z,6.58
2018-12-01T23:49:13.273Z,6.03
2018-12-01T23:54:16.533Z,5.90
2018-12-01T23:59:19.708Z,5.50
